sensor_id;sensor_type;location;lat;lon;timestamp;P1;durP1;ratioP1;P2;durP2;ratioP2
64834;SDS011;51293;59.296;18.006;2022-09-09T00:02:26;6.00;;;1.20;;
64834;SDS011;51293;59.296;18.006;2022-09-09T00:04:59;2.95;;;0.90;;
64834;SDS011;51293;59.296;18.006;2022-09-09T00:10:28;3.50;;;1.25;;
64834;SDS011;51293;59.296;18.006;2022-09-09T00:15:55;2.65;;;0.90;;
64834;SDS011;51293;59.296;18.006;2022-09-09T00:27:11;2.15;;;0.50;;
64834;SDS011;51293;59.296;18.006;2022-09-09T00:29:45;3.45;;;0.85;;
64834;SDS011;51293;59.296;18.006;2022-09-09T00:32:16;2.25;;;0.70;;
64834;SDS011;51293;59.296;18.006;2022-09-09T00:34:53;2.80;;;0.80;;
64834;SDS011;51293;59.296;18.006;2022-09-09T00:37:22;2.67;;;0.80;;
64834;SDS011;51293;59.296;18.006;2022-09-09T00:39:53;1.63;;;0.70;;
64834;SDS011;51293;59.296;18.006;2022-09-09T00:42:23;0.85;;;0.68;;
64834;SDS011;51293;59.296;18.006;2022-09-09T00:44:52;0.60;;;0.50;;
64834;SDS011;51293;59.296;18.006;2022-09-09T00:47:38;0.52;;;0.52;;
64834;SDS011;51293;59.296;18.006;2022-09-09T00:50:42;2.55;;;0.60;;
64834;SDS011;51293;59.296;18.006;2022-09-09T00:56:17;1.60;;;0.70;;
64834;SDS011;51293;59.296;18.006;2022-09-09T00:58:52;2.50;;;0.70;;
64834;SDS011;51293;59.296;18.006;2022-09-09T01:01:32;0.82;;;0.60;;
64834;SDS011;51293;59.296;18.006;2022-09-09T01:03:57;1.05;;;0.60;;
64834;SDS011;51293;59.296;18.006;2022-09-09T01:06:31;0.50;;;0.50;;
64834;SDS011;51293;59.296;18.006;2022-09-09T01:09:16;6.13;;;0.80;;
64834;SDS011;51293;59.296;18.006;2022-09-09T01:17:23;2.65;;;0.60;;
64834;SDS011;51293;59.296;18.006;2022-09-09T01:26:02;1.52;;;0.70;;
64834;SDS011;51293;59.296;18.006;2022-09-09T01:28:35;1.95;;;0.70;;
64834;SDS011;51293;59.296;18.006;2022-09-09T01:31:03;1.75;;;0.52;;
64834;SDS011;51293;59.296;18.006;2022-09-09T01:33:31;2.20;;;0.60;;
64834;SDS011;51293;59.296;18.006;2022-09-09T01:36:07;1.02;;;0.63;;
64834;SDS011;51293;59.296;18.006;2022-09-09T01:38:37;0.75;;;0.60;;
64834;SDS011;51293;59.296;18.006;2022-09-09T01:41:03;0.77;;;0.60;;
64834;SDS011;51293;59.296;18.006;2022-09-09T01:43:28;1.83;;;0.43;;
64834;SDS011;51293;59.296;18.006;2022-09-09T01:45:55;1.02;;;0.52;;
64834;SDS011;51293;59.296;18.006;2022-09-09T01:48:23;0.95;;;0.65;;
64834;SDS011;51293;59.296;18.006;2022-09-09T01:50:49;1.02;;;0.50;;
64834;SDS011;51293;59.296;18.006;2022-09-09T01:53:15;0.68;;;0.57;;
64834;SDS011;51293;59.296;18.006;2022-09-09T01:55:46;2.38;;;0.70;;
64834;SDS011;51293;59.296;18.006;2022-09-09T01:58:41;1.75;;;0.60;;
64834;SDS011;51293;59.296;18.006;2022-09-09T02:01:32;0.82;;;0.70;;
64834;SDS011;51293;59.296;18.006;2022-09-09T02:04:02;2.97;;;0.70;;
64834;SDS011;51293;59.296;18.006;2022-09-09T02:06:35;1.85;;;0.50;;
64834;SDS011;51293;59.296;18.006;2022-09-09T02:09:05;0.93;;;0.60;;
64834;SDS011;51293;59.296;18.006;2022-09-09T02:11:32;1.30;;;0.65;;
64834;SDS011;51293;59.296;18.006;2022-09-09T02:14:18;1.45;;;0.50;;
64834;SDS011;51293;59.296;18.006;2022-09-09T02:16:56;0.80;;;0.60;;
64834;SDS011;51293;59.296;18.006;2022-09-09T02:25:10;2.58;;;0.63;;
64834;SDS011;51293;59.296;18.006;2022-09-09T02:27:40;1.83;;;0.70;;
64834;SDS011;51293;59.296;18.006;2022-09-09T02:30:08;2.47;;;0.70;;
64834;SDS011;51293;59.296;18.006;2022-09-09T02:32:35;1.85;;;0.70;;
64834;SDS011;51293;59.296;18.006;2022-09-09T02:35:07;2.80;;;0.68;;
64834;SDS011;51293;59.296;18.006;2022-09-09T02:37:38;1.58;;;0.75;;
64834;SDS011;51293;59.296;18.006;2022-09-09T02:40:05;1.75;;;0.82;;
64834;SDS011;51293;59.296;18.006;2022-09-09T02:42:38;0.80;;;0.73;;
64834;SDS011;51293;59.296;18.006;2022-09-09T02:45:05;1.70;;;0.70;;
64834;SDS011;51293;59.296;18.006;2022-09-09T02:47:38;1.55;;;0.85;;
64834;SDS011;51293;59.296;18.006;2022-09-09T02:58:20;4.60;;;1.00;;
64834;SDS011;51293;59.296;18.006;2022-09-09T03:00:47;1.13;;;0.70;;
64834;SDS011;51293;59.296;18.006;2022-09-09T03:03:15;0.98;;;0.80;;
64834;SDS011;51293;59.296;18.006;2022-09-09T03:05:42;2.83;;;0.70;;
64834;SDS011;51293;59.296;18.006;2022-09-09T03:08:08;1.10;;;0.80;;
64834;SDS011;51293;59.296;18.006;2022-09-09T03:10:34;2.38;;;0.90;;
64834;SDS011;51293;59.296;18.006;2022-09-09T03:13:00;1.75;;;0.80;;
64834;SDS011;51293;59.296;18.006;2022-09-09T03:15:26;2.35;;;0.80;;
64834;SDS011;51293;59.296;18.006;2022-09-09T03:17:55;3.25;;;0.85;;
64834;SDS011;51293;59.296;18.006;2022-09-09T03:20:21;6.35;;;1.00;;
64834;SDS011;51293;59.296;18.006;2022-09-09T03:22:47;4.70;;;0.90;;
64834;SDS011;51293;59.296;18.006;2022-09-09T03:25:13;2.15;;;0.80;;
64834;SDS011;51293;59.296;18.006;2022-09-09T03:27:38;4.18;;;0.90;;
64834;SDS011;51293;59.296;18.006;2022-09-09T03:30:04;1.10;;;0.80;;
64834;SDS011;51293;59.296;18.006;2022-09-09T03:32:30;1.42;;;0.82;;
64834;SDS011;51293;59.296;18.006;2022-09-09T03:34:56;1.42;;;0.80;;
64834;SDS011;51293;59.296;18.006;2022-09-09T03:37:21;3.05;;;0.95;;
64834;SDS011;51293;59.296;18.006;2022-09-09T03:39:47;4.47;;;0.90;;
64834;SDS011;51293;59.296;18.006;2022-09-09T03:42:13;1.60;;;1.00;;
64834;SDS011;51293;59.296;18.006;2022-09-09T03:44:39;2.70;;;0.80;;
64834;SDS011;51293;59.296;18.006;2022-09-09T03:47:07;3.95;;;1.00;;
64834;SDS011;51293;59.296;18.006;2022-09-09T03:49:32;1.75;;;0.80;;
64834;SDS011;51293;59.296;18.006;2022-09-09T03:51:58;1.98;;;1.08;;
64834;SDS011;51293;59.296;18.006;2022-09-09T03:54:24;2.38;;;0.90;;
64834;SDS011;51293;59.296;18.006;2022-09-09T03:56:50;3.53;;;1.10;;
64834;SDS011;51293;59.296;18.006;2022-09-09T03:59:16;2.50;;;1.27;;
64834;SDS011;51293;59.296;18.006;2022-09-09T04:01:41;2.70;;;1.17;;
64834;SDS011;51293;59.296;18.006;2022-09-09T04:04:07;8.25;;;1.30;;
64834;SDS011;51293;59.296;18.006;2022-09-09T04:06:32;3.97;;;1.10;;
64834;SDS011;51293;59.296;18.006;2022-09-09T04:08:58;2.80;;;0.98;;
64834;SDS011;51293;59.296;18.006;2022-09-09T04:11:23;1.70;;;0.90;;
64834;SDS011;51293;59.296;18.006;2022-09-09T04:13:49;2.70;;;0.90;;
64834;SDS011;51293;59.296;18.006;2022-09-09T04:16:14;1.98;;;1.10;;
64834;SDS011;51293;59.296;18.006;2022-09-09T04:18:40;10.38;;;1.02;;
64834;SDS011;51293;59.296;18.006;2022-09-09T04:21:06;3.47;;;1.00;;
64834;SDS011;51293;59.296;18.006;2022-09-09T04:23:32;2.40;;;0.75;;
64834;SDS011;51293;59.296;18.006;2022-09-09T04:25:59;1.98;;;0.88;;
64834;SDS011;51293;59.296;18.006;2022-09-09T04:28:27;4.15;;;0.90;;
64834;SDS011;51293;59.296;18.006;2022-09-09T04:30:54;3.55;;;1.30;;
64834;SDS011;51293;59.296;18.006;2022-09-09T04:33:23;6.28;;;0.90;;
64834;SDS011;51293;59.296;18.006;2022-09-09T04:35:51;4.40;;;0.90;;
64834;SDS011;51293;59.296;18.006;2022-09-09T04:38:19;3.33;;;0.90;;
64834;SDS011;51293;59.296;18.006;2022-09-09T04:40:48;1.27;;;0.70;;
64834;SDS011;51293;59.296;18.006;2022-09-09T04:43:14;1.17;;;0.80;;
64834;SDS011;51293;59.296;18.006;2022-09-09T04:45:40;4.68;;;0.82;;
64834;SDS011;51293;59.296;18.006;2022-09-09T04:48:06;1.52;;;0.88;;
64834;SDS011;51293;59.296;18.006;2022-09-09T04:50:32;2.05;;;1.10;;
64834;SDS011;51293;59.296;18.006;2022-09-09T04:53:02;1.95;;;0.90;;
64834;SDS011;51293;59.296;18.006;2022-09-09T04:55:29;0.70;;;0.50;;
64834;SDS011;51293;59.296;18.006;2022-09-09T04:57:56;3.83;;;0.70;;
64834;SDS011;51293;59.296;18.006;2022-09-09T05:00:22;1.27;;;0.68;;
64834;SDS011;51293;59.296;18.006;2022-09-09T05:02:48;1.15;;;0.70;;
64834;SDS011;51293;59.296;18.006;2022-09-09T05:05:13;2.35;;;0.70;;
64834;SDS011;51293;59.296;18.006;2022-09-09T05:07:39;1.90;;;0.90;;
64834;SDS011;51293;59.296;18.006;2022-09-09T05:10:05;1.15;;;0.68;;
64834;SDS011;51293;59.296;18.006;2022-09-09T05:12:31;1.75;;;0.63;;
64834;SDS011;51293;59.296;18.006;2022-09-09T05:14:57;4.95;;;0.60;;
64834;SDS011;51293;59.296;18.006;2022-09-09T05:17:22;6.22;;;1.00;;
64834;SDS011;51293;59.296;18.006;2022-09-09T05:19:48;3.22;;;0.70;;
64834;SDS011;51293;59.296;18.006;2022-09-09T05:22:17;0.77;;;0.60;;
64834;SDS011;51293;59.296;18.006;2022-09-09T05:24:44;2.28;;;0.82;;
64834;SDS011;51293;59.296;18.006;2022-09-09T05:27:09;1.10;;;0.60;;
64834;SDS011;51293;59.296;18.006;2022-09-09T05:29:37;4.35;;;1.58;;
64834;SDS011;51293;59.296;18.006;2022-09-09T05:32:03;3.05;;;0.80;;
64834;SDS011;51293;59.296;18.006;2022-09-09T05:34:28;2.15;;;0.65;;
64834;SDS011;51293;59.296;18.006;2022-09-09T05:36:54;1.95;;;0.60;;
64834;SDS011;51293;59.296;18.006;2022-09-09T05:39:19;3.25;;;0.77;;
64834;SDS011;51293;59.296;18.006;2022-09-09T05:41:44;1.15;;;0.60;;
64834;SDS011;51293;59.296;18.006;2022-09-09T05:44:10;1.17;;;0.60;;
64834;SDS011;51293;59.296;18.006;2022-09-09T05:46:35;0.60;;;0.50;;
64834;SDS011;51293;59.296;18.006;2022-09-09T05:49:01;2.53;;;0.70;;
64834;SDS011;51293;59.296;18.006;2022-09-09T05:51:27;2.33;;;0.80;;
64834;SDS011;51293;59.296;18.006;2022-09-09T05:53:55;1.73;;;0.60;;
64834;SDS011;51293;59.296;18.006;2022-09-09T05:56:24;0.82;;;0.47;;
64834;SDS011;51293;59.296;18.006;2022-09-09T05:58:51;1.63;;;0.50;;
64834;SDS011;51293;59.296;18.006;2022-09-09T06:03:44;0.43;;;0.43;;
64834;SDS011;51293;59.296;18.006;2022-09-09T06:06:12;2.22;;;0.70;;
64834;SDS011;51293;59.296;18.006;2022-09-09T06:08:43;3.30;;;0.63;;
64834;SDS011;51293;59.296;18.006;2022-09-09T06:11:16;2.30;;;0.60;;
64834;SDS011;51293;59.296;18.006;2022-09-09T06:13:43;0.75;;;0.50;;
64834;SDS011;51293;59.296;18.006;2022-09-09T06:16:10;2.65;;;0.60;;
64834;SDS011;51293;59.296;18.006;2022-09-09T06:18:36;3.28;;;0.57;;
64834;SDS011;51293;59.296;18.006;2022-09-09T06:21:03;1.83;;;0.50;;
64834;SDS011;51293;59.296;18.006;2022-09-09T06:23:31;3.17;;;0.60;;
64834;SDS011;51293;59.296;18.006;2022-09-09T06:26:07;2.30;;;0.70;;
64834;SDS011;51293;59.296;18.006;2022-09-09T06:28:36;2.03;;;0.63;;
64834;SDS011;51293;59.296;18.006;2022-09-09T06:31:05;1.65;;;0.70;;
64834;SDS011;51293;59.296;18.006;2022-09-09T06:33:35;2.63;;;0.80;;
64834;SDS011;51293;59.296;18.006;2022-09-09T06:36:05;1.73;;;0.70;;
64834;SDS011;51293;59.296;18.006;2022-09-09T06:38:30;4.60;;;0.70;;
64834;SDS011;51293;59.296;18.006;2022-09-09T06:40:59;0.95;;;0.40;;
64834;SDS011;51293;59.296;18.006;2022-09-09T06:43:25;2.33;;;0.60;;
64834;SDS011;51293;59.296;18.006;2022-09-09T06:46:01;6.40;;;0.60;;
64834;SDS011;51293;59.296;18.006;2022-09-09T06:48:28;1.05;;;0.60;;
64834;SDS011;51293;59.296;18.006;2022-09-09T06:51:03;1.95;;;0.63;;
64834;SDS011;51293;59.296;18.006;2022-09-09T06:53:30;1.45;;;0.55;;
64834;SDS011;51293;59.296;18.006;2022-09-09T06:55:58;3.35;;;0.55;;
64834;SDS011;51293;59.296;18.006;2022-09-09T06:58:44;1.30;;;0.55;;
64834;SDS011;51293;59.296;18.006;2022-09-09T07:01:11;0.73;;;0.60;;
64834;SDS011;51293;59.296;18.006;2022-09-09T07:03:44;2.05;;;0.73;;
64834;SDS011;51293;59.296;18.006;2022-09-09T07:06:15;1.33;;;0.52;;
64834;SDS011;51293;59.296;18.006;2022-09-09T07:08:53;2.22;;;0.70;;
64834;SDS011;51293;59.296;18.006;2022-09-09T07:11:21;2.38;;;0.60;;
64834;SDS011;51293;59.296;18.006;2022-09-09T07:13:48;1.05;;;0.50;;
64834;SDS011;51293;59.296;18.006;2022-09-09T07:16:15;1.55;;;0.68;;
64834;SDS011;51293;59.296;18.006;2022-09-09T07:18:43;2.17;;;0.68;;
64834;SDS011;51293;59.296;18.006;2022-09-09T07:21:10;2.00;;;0.68;;
64834;SDS011;51293;59.296;18.006;2022-09-09T07:23:37;1.95;;;0.57;;
64834;SDS011;51293;59.296;18.006;2022-09-09T07:26:07;2.33;;;0.60;;
64834;SDS011;51293;59.296;18.006;2022-09-09T07:28:38;2.78;;;0.95;;
64834;SDS011;51293;59.296;18.006;2022-09-09T07:31:04;3.95;;;0.73;;
64834;SDS011;51293;59.296;18.006;2022-09-09T07:33:31;2.38;;;0.63;;
64834;SDS011;51293;59.296;18.006;2022-09-09T07:36:07;4.60;;;0.90;;
64834;SDS011;51293;59.296;18.006;2022-09-09T07:38:41;1.40;;;0.65;;
64834;SDS011;51293;59.296;18.006;2022-09-09T07:41:11;4.07;;;0.57;;
64834;SDS011;51293;59.296;18.006;2022-09-09T07:43:41;2.05;;;0.70;;
64834;SDS011;51293;59.296;18.006;2022-09-09T07:46:09;1.15;;;0.50;;
64834;SDS011;51293;59.296;18.006;2022-09-09T07:48:35;3.25;;;0.60;;
64834;SDS011;51293;59.296;18.006;2022-09-09T07:51:08;2.60;;;0.70;;
64834;SDS011;51293;59.296;18.006;2022-09-09T07:53:36;1.48;;;0.63;;
64834;SDS011;51293;59.296;18.006;2022-09-09T07:56:10;2.75;;;0.65;;
64834;SDS011;51293;59.296;18.006;2022-09-09T07:58:38;3.80;;;0.77;;
64834;SDS011;51293;59.296;18.006;2022-09-09T08:01:15;3.08;;;0.88;;
64834;SDS011;51293;59.296;18.006;2022-09-09T08:03:43;2.47;;;0.60;;
64834;SDS011;51293;59.296;18.006;2022-09-09T08:06:17;2.10;;;0.80;;
64834;SDS011;51293;59.296;18.006;2022-09-09T08:08:42;1.38;;;0.57;;
64834;SDS011;51293;59.296;18.006;2022-09-09T08:11:12;1.40;;;0.90;;
64834;SDS011;51293;59.296;18.006;2022-09-09T08:13:39;0.80;;;0.55;;
64834;SDS011;51293;59.296;18.006;2022-09-09T08:16:10;1.65;;;0.50;;
64834;SDS011;51293;59.296;18.006;2022-09-09T08:18:41;2.13;;;0.60;;
64834;SDS011;51293;59.296;18.006;2022-09-09T08:23:37;5.13;;;0.80;;
64834;SDS011;51293;59.296;18.006;2022-09-09T08:26:09;4.22;;;0.75;;
64834;SDS011;51293;59.296;18.006;2022-09-09T08:28:44;2.90;;;0.70;;
64834;SDS011;51293;59.296;18.006;2022-09-09T08:31:11;1.13;;;0.60;;
64834;SDS011;51293;59.296;18.006;2022-09-09T08:33:38;1.27;;;0.60;;
64834;SDS011;51293;59.296;18.006;2022-09-09T08:36:06;1.67;;;0.80;;
64834;SDS011;51293;59.296;18.006;2022-09-09T08:38:35;3.30;;;0.60;;
64834;SDS011;51293;59.296;18.006;2022-09-09T08:52:30;2.72;;;0.68;;
64834;SDS011;51293;59.296;18.006;2022-09-09T08:55:02;4.45;;;0.75;;
64834;SDS011;51293;59.296;18.006;2022-09-09T08:57:38;2.92;;;0.88;;
64834;SDS011;51293;59.296;18.006;2022-09-09T09:00:03;3.60;;;0.82;;
64834;SDS011;51293;59.296;18.006;2022-09-09T09:02:36;2.03;;;0.50;;
64834;SDS011;51293;59.296;18.006;2022-09-09T09:07:44;4.60;;;0.80;;
64834;SDS011;51293;59.296;18.006;2022-09-09T09:12:44;2.33;;;0.70;;
64834;SDS011;51293;59.296;18.006;2022-09-09T09:15:25;4.93;;;0.80;;
64834;SDS011;51293;59.296;18.006;2022-09-09T09:17:55;0.80;;;0.63;;
64834;SDS011;51293;59.296;18.006;2022-09-09T09:20:23;0.95;;;0.50;;
64834;SDS011;51293;59.296;18.006;2022-09-09T09:22:59;3.78;;;0.70;;
64834;SDS011;51293;59.296;18.006;2022-09-09T09:25:32;1.90;;;0.80;;
64834;SDS011;51293;59.296;18.006;2022-09-09T09:36:06;1.95;;;0.70;;
64834;SDS011;51293;59.296;18.006;2022-09-09T09:38:33;3.60;;;0.90;;
64834;SDS011;51293;59.296;18.006;2022-09-09T09:40:59;2.45;;;0.93;;
64834;SDS011;51293;59.296;18.006;2022-09-09T09:43:28;4.05;;;0.80;;
64834;SDS011;51293;59.296;18.006;2022-09-09T09:45:54;4.15;;;0.90;;
64834;SDS011;51293;59.296;18.006;2022-09-09T09:48:20;7.10;;;0.98;;
64834;SDS011;51293;59.296;18.006;2022-09-09T09:51:31;3.40;;;1.00;;
64834;SDS011;51293;59.296;18.006;2022-09-09T09:53:40;1.77;;;0.90;;
64834;SDS011;51293;59.296;18.006;2022-09-09T09:56:07;3.53;;;0.80;;
64834;SDS011;51293;59.296;18.006;2022-09-09T10:01:23;2.67;;;0.73;;
64834;SDS011;51293;59.296;18.006;2022-09-09T10:03:53;1.02;;;0.60;;
64834;SDS011;51293;59.296;18.006;2022-09-09T10:06:34;1.42;;;0.80;;
64834;SDS011;51293;59.296;18.006;2022-09-09T10:09:24;2.67;;;0.80;;
64834;SDS011;51293;59.296;18.006;2022-09-09T10:11:55;6.00;;;0.90;;
64834;SDS011;51293;59.296;18.006;2022-09-09T10:19:39;1.77;;;0.57;;
64834;SDS011;51293;59.296;18.006;2022-09-09T10:22:28;4.22;;;0.90;;
64834;SDS011;51293;59.296;18.006;2022-09-09T10:33:04;1.10;;;0.52;;
64834;SDS011;51293;59.296;18.006;2022-09-09T10:38:24;2.17;;;0.80;;
64834;SDS011;51293;59.296;18.006;2022-09-09T10:41:01;3.35;;;0.80;;
64834;SDS011;51293;59.296;18.006;2022-09-09T10:54:36;5.13;;;0.93;;
64834;SDS011;51293;59.296;18.006;2022-09-09T10:57:47;1.88;;;0.70;;
64834;SDS011;51293;59.296;18.006;2022-09-09T11:02:39;3.55;;;0.93;;
64834;SDS011;51293;59.296;18.006;2022-09-09T11:10:39;1.85;;;0.80;;
64834;SDS011;51293;59.296;18.006;2022-09-09T11:13:11;2.22;;;0.63;;
64834;SDS011;51293;59.296;18.006;2022-09-09T11:15:44;3.40;;;0.60;;
64834;SDS011;51293;59.296;18.006;2022-09-09T11:18:17;5.50;;;0.98;;
64834;SDS011;51293;59.296;18.006;2022-09-09T11:20:51;2.35;;;0.82;;
64834;SDS011;51293;59.296;18.006;2022-09-09T11:23:26;2.95;;;0.70;;
64834;SDS011;51293;59.296;18.006;2022-09-09T11:25:59;2.38;;;0.80;;
64834;SDS011;51293;59.296;18.006;2022-09-09T11:40:34;2.20;;;0.82;;
64834;SDS011;51293;59.296;18.006;2022-09-09T11:45:27;1.65;;;0.70;;
64834;SDS011;51293;59.296;18.006;2022-09-09T11:47:58;1.90;;;1.00;;
64834;SDS011;51293;59.296;18.006;2022-09-09T11:52:51;1.98;;;1.00;;
64834;SDS011;51293;59.296;18.006;2022-09-09T11:55:29;1.35;;;0.90;;
64834;SDS011;51293;59.296;18.006;2022-09-09T11:58:00;1.42;;;0.90;;
64834;SDS011;51293;59.296;18.006;2022-09-09T12:00:40;4.63;;;1.10;;
64834;SDS011;51293;59.296;18.006;2022-09-09T12:06:20;1.73;;;0.90;;
64834;SDS011;51293;59.296;18.006;2022-09-09T12:09:06;1.77;;;1.02;;
64834;SDS011;51293;59.296;18.006;2022-09-09T12:11:38;3.97;;;1.00;;
64834;SDS011;51293;59.296;18.006;2022-09-09T12:14:03;2.70;;;1.00;;
64834;SDS011;51293;59.296;18.006;2022-09-09T12:16:31;2.67;;;0.90;;
64834;SDS011;51293;59.296;18.006;2022-09-09T12:19:24;3.35;;;1.00;;
64834;SDS011;51293;59.296;18.006;2022-09-09T12:21:51;1.30;;;1.05;;
64834;SDS011;51293;59.296;18.006;2022-09-09T12:24:36;1.08;;;0.98;;
64834;SDS011;51293;59.296;18.006;2022-09-09T12:30:11;4.45;;;0.98;;
64834;SDS011;51293;59.296;18.006;2022-09-09T12:32:40;1.00;;;0.90;;
64834;SDS011;51293;59.296;18.006;2022-09-09T12:35:13;2.55;;;1.00;;
64834;SDS011;51293;59.296;18.006;2022-09-09T12:37:49;2.55;;;0.93;;
64834;SDS011;51293;59.296;18.006;2022-09-09T12:40:20;1.58;;;0.70;;
64834;SDS011;51293;59.296;18.006;2022-09-09T12:42:47;2.60;;;0.90;;
64834;SDS011;51293;59.296;18.006;2022-09-09T12:45:23;4.53;;;0.93;;
64834;SDS011;51293;59.296;18.006;2022-09-09T12:50:32;7.05;;;1.00;;
64834;SDS011;51293;59.296;18.006;2022-09-09T12:53:42;1.88;;;0.98;;
64834;SDS011;51293;59.296;18.006;2022-09-09T12:56:01;3.33;;;1.10;;
64834;SDS011;51293;59.296;18.006;2022-09-09T12:58:30;2.63;;;1.15;;
64834;SDS011;51293;59.296;18.006;2022-09-09T13:01:00;1.80;;;1.10;;
64834;SDS011;51293;59.296;18.006;2022-09-09T13:03:29;1.85;;;1.10;;
64834;SDS011;51293;59.296;18.006;2022-09-09T13:05:57;1.63;;;1.02;;
64834;SDS011;51293;59.296;18.006;2022-09-09T13:08:34;3.25;;;1.20;;
64834;SDS011;51293;59.296;18.006;2022-09-09T13:11:01;2.28;;;1.10;;
64834;SDS011;51293;59.296;18.006;2022-09-09T13:16:00;1.38;;;0.85;;
64834;SDS011;51293;59.296;18.006;2022-09-09T13:18:28;2.85;;;1.10;;
64834;SDS011;51293;59.296;18.006;2022-09-09T13:20:55;3.03;;;1.00;;
64834;SDS011;51293;59.296;18.006;2022-09-09T13:23:22;1.42;;;0.90;;
64834;SDS011;51293;59.296;18.006;2022-09-09T13:25:54;3.60;;;0.90;;
64834;SDS011;51293;59.296;18.006;2022-09-09T13:28:31;2.90;;;1.10;;
64834;SDS011;51293;59.296;18.006;2022-09-09T13:31:04;2.28;;;1.08;;
64834;SDS011;51293;59.296;18.006;2022-09-09T13:33:35;1.67;;;0.90;;
64834;SDS011;51293;59.296;18.006;2022-09-09T13:36:03;3.60;;;1.00;;
64834;SDS011;51293;59.296;18.006;2022-09-09T13:38:30;2.50;;;1.27;;
64834;SDS011;51293;59.296;18.006;2022-09-09T13:43:35;2.83;;;1.17;;
64834;SDS011;51293;59.296;18.006;2022-09-09T13:46:22;2.72;;;0.90;;
64834;SDS011;51293;59.296;18.006;2022-09-09T13:54:15;2.33;;;0.90;;
64834;SDS011;51293;59.296;18.006;2022-09-09T13:56:42;2.55;;;0.90;;
64834;SDS011;51293;59.296;18.006;2022-09-09T13:59:12;1.77;;;0.95;;
64834;SDS011;51293;59.296;18.006;2022-09-09T14:01:44;3.22;;;1.02;;
64834;SDS011;51293;59.296;18.006;2022-09-09T14:04:10;2.75;;;0.95;;
64834;SDS011;51293;59.296;18.006;2022-09-09T14:06:35;3.85;;;1.10;;
64834;SDS011;51293;59.296;18.006;2022-09-09T14:09:04;1.60;;;0.93;;
64834;SDS011;51293;59.296;18.006;2022-09-09T14:11:31;2.85;;;1.13;;
64834;SDS011;51293;59.296;18.006;2022-09-09T14:13:56;1.63;;;1.00;;
64834;SDS011;51293;59.296;18.006;2022-09-09T14:16:22;3.63;;;1.00;;
64834;SDS011;51293;59.296;18.006;2022-09-09T14:18:47;1.77;;;1.00;;
64834;SDS011;51293;59.296;18.006;2022-09-09T14:21:13;3.22;;;1.13;;
64834;SDS011;51293;59.296;18.006;2022-09-09T14:23:40;1.67;;;1.20;;
64834;SDS011;51293;59.296;18.006;2022-09-09T14:26:06;1.70;;;0.85;;
64834;SDS011;51293;59.296;18.006;2022-09-09T14:28:32;2.13;;;0.95;;
64834;SDS011;51293;59.296;18.006;2022-09-09T14:31:01;1.27;;;0.82;;
64834;SDS011;51293;59.296;18.006;2022-09-09T14:33:28;1.42;;;0.90;;
64834;SDS011;51293;59.296;18.006;2022-09-09T14:35:58;2.95;;;1.08;;
64834;SDS011;51293;59.296;18.006;2022-09-09T14:38:25;2.38;;;1.00;;
64834;SDS011;51293;59.296;18.006;2022-09-09T14:40:54;3.00;;;0.98;;
64834;SDS011;51293;59.296;18.006;2022-09-09T14:43:19;2.17;;;1.00;;
64834;SDS011;51293;59.296;18.006;2022-09-09T14:45:45;1.55;;;1.00;;
64834;SDS011;51293;59.296;18.006;2022-09-09T14:48:12;1.45;;;1.00;;
64834;SDS011;51293;59.296;18.006;2022-09-09T14:50:39;2.03;;;1.00;;
64834;SDS011;51293;59.296;18.006;2022-09-09T14:53:05;2.97;;;1.00;;
64834;SDS011;51293;59.296;18.006;2022-09-09T14:55:31;3.25;;;1.10;;
64834;SDS011;51293;59.296;18.006;2022-09-09T14:57:57;1.13;;;0.90;;
64834;SDS011;51293;59.296;18.006;2022-09-09T15:00:23;1.73;;;1.00;;
64834;SDS011;51293;59.296;18.006;2022-09-09T15:02:51;1.60;;;1.00;;
64834;SDS011;51293;59.296;18.006;2022-09-09T15:05:18;5.90;;;1.20;;
64834;SDS011;51293;59.296;18.006;2022-09-09T15:07:44;1.73;;;0.90;;
64834;SDS011;51293;59.296;18.006;2022-09-09T15:10:09;1.60;;;1.02;;
64834;SDS011;51293;59.296;18.006;2022-09-09T15:12:35;7.63;;;1.15;;
64834;SDS011;51293;59.296;18.006;2022-09-09T15:15:01;1.20;;;1.00;;
64834;SDS011;51293;59.296;18.006;2022-09-09T15:17:27;3.38;;;0.90;;
64834;SDS011;51293;59.296;18.006;2022-09-09T15:19:53;3.00;;;1.00;;
64834;SDS011;51293;59.296;18.006;2022-09-09T15:22:19;1.27;;;1.02;;
64834;SDS011;51293;59.296;18.006;2022-09-09T15:24:44;2.70;;;1.10;;
64834;SDS011;51293;59.296;18.006;2022-09-09T15:27:10;3.60;;;1.20;;
64834;SDS011;51293;59.296;18.006;2022-09-09T15:29:35;6.18;;;1.20;;
64834;SDS011;51293;59.296;18.006;2022-09-09T15:32:01;1.10;;;1.00;;
64834;SDS011;51293;59.296;18.006;2022-09-09T15:34:26;1.88;;;1.10;;
64834;SDS011;51293;59.296;18.006;2022-09-09T15:36:51;3.10;;;1.10;;
64834;SDS011;51293;59.296;18.006;2022-09-09T15:39:17;2.92;;;0.98;;
64834;SDS011;51293;59.296;18.006;2022-09-09T15:41:44;2.72;;;0.90;;
64834;SDS011;51293;59.296;18.006;2022-09-09T15:44:11;1.38;;;0.95;;
64834;SDS011;51293;59.296;18.006;2022-09-09T15:46:39;2.20;;;1.10;;
64834;SDS011;51293;59.296;18.006;2022-09-09T15:51:39;2.13;;;1.10;;
64834;SDS011;51293;59.296;18.006;2022-09-09T15:54:29;2.35;;;1.25;;
64834;SDS011;51293;59.296;18.006;2022-09-09T15:56:57;1.50;;;1.10;;
64834;SDS011;51293;59.296;18.006;2022-09-09T15:59:25;1.45;;;1.10;;
64834;SDS011;51293;59.296;18.006;2022-09-09T16:01:52;2.80;;;1.10;;
64834;SDS011;51293;59.296;18.006;2022-09-09T16:04:18;3.25;;;1.10;;
64834;SDS011;51293;59.296;18.006;2022-09-09T16:06:58;3.60;;;1.10;;
64834;SDS011;51293;59.296;18.006;2022-09-09T16:09:25;1.60;;;1.05;;
64834;SDS011;51293;59.296;18.006;2022-09-09T16:11:52;1.65;;;1.10;;
64834;SDS011;51293;59.296;18.006;2022-09-09T16:14:18;2.03;;;1.20;;
64834;SDS011;51293;59.296;18.006;2022-09-09T16:16:44;1.85;;;1.10;;
64834;SDS011;51293;59.296;18.006;2022-09-09T16:19:11;3.08;;;1.13;;
64834;SDS011;51293;59.296;18.006;2022-09-09T16:21:41;5.32;;;1.20;;
64834;SDS011;51293;59.296;18.006;2022-09-09T16:24:09;3.63;;;1.27;;
64834;SDS011;51293;59.296;18.006;2022-09-09T16:26:37;1.50;;;1.10;;
64834;SDS011;51293;59.296;18.006;2022-09-09T16:29:04;1.23;;;1.00;;
64834;SDS011;51293;59.296;18.006;2022-09-09T16:31:30;3.63;;;1.10;;
64834;SDS011;51293;59.296;18.006;2022-09-09T16:33:59;2.00;;;1.20;;
64834;SDS011;51293;59.296;18.006;2022-09-09T16:36:26;1.48;;;1.00;;
64834;SDS011;51293;59.296;18.006;2022-09-09T16:38:53;1.52;;;1.00;;
64834;SDS011;51293;59.296;18.006;2022-09-09T16:41:22;5.07;;;0.90;;
64834;SDS011;51293;59.296;18.006;2022-09-09T16:43:52;1.30;;;1.02;;
64834;SDS011;51293;59.296;18.006;2022-09-09T16:46:25;2.78;;;1.10;;
64834;SDS011;51293;59.296;18.006;2022-09-09T16:48:52;3.22;;;1.10;;
64834;SDS011;51293;59.296;18.006;2022-09-09T16:51:24;3.90;;;1.20;;
64834;SDS011;51293;59.296;18.006;2022-09-09T16:53:52;2.35;;;1.00;;
64834;SDS011;51293;59.296;18.006;2022-09-09T16:56:20;2.00;;;1.20;;
64834;SDS011;51293;59.296;18.006;2022-09-09T16:58:51;6.93;;;1.05;;
64834;SDS011;51293;59.296;18.006;2022-09-09T17:01:20;3.33;;;1.20;;
64834;SDS011;51293;59.296;18.006;2022-09-09T17:03:45;1.45;;;1.17;;
64834;SDS011;51293;59.296;18.006;2022-09-09T17:06:11;2.90;;;1.20;;
64834;SDS011;51293;59.296;18.006;2022-09-09T17:08:38;1.58;;;1.45;;
64834;SDS011;51293;59.296;18.006;2022-09-09T17:11:25;2.17;;;1.30;;
64834;SDS011;51293;59.296;18.006;2022-09-09T17:13:50;6.50;;;2.03;;
64834;SDS011;51293;59.296;18.006;2022-09-09T17:16:18;2.72;;;1.30;;
64834;SDS011;51293;59.296;18.006;2022-09-09T17:18:46;2.08;;;1.10;;